Aviation Digital Data Service (ADDS)

Output produced by TAFs form (1613 UTC 14 August 2018)
found at http://www.aviationweather.gov/adds/tafs/
 
RJTT 141600Z 21013KT 9999 FEW015 SCT/// 28/24 Q1013 NOSIG RMK 1CU015 A2993
TAF RJTT 141105Z 1412/1518 20014KT 9999 FEW015
       
RJAA 141600Z 21007KT 9999 FEW030 27/24 Q1014 NOSIG RMK 1CU030 A2994
TAF RJAA 141105Z 1412/1518 20010KT 9999 FEW010 SCT020
       
RJGG 141600Z 12009KT 9999 FEW010 SCT/// 28/25 Q1014 NOSIG
TAF RJGG 141107Z 1412/1518 14012KT 9999 FEW020 
     TEMPO 1420/1500 FEW008 FEW020CB BKN025
       
RJBB 141600Z AUTO 27003KT 9999 FEW047 BKN050 BKN060 28/25 Q1012 NOSIG
TAF RJBB 141105Z 1412/1518 07004KT 9999 FEW025 
     BECMG 1503/1506 19012KT
       
RJOO 141100Z 17003KT 130V210 9999 FEW030 31/21 Q1012 RMK 1CU030 A2989
TAF RJOO 141106Z 1412/1518 07006KT 9999 FEW025 SCT040 
     BECMG 1509/1512 28004KT
       
RJFF 141600Z AUTO 04005KT 350V080 9999 NCD 30/21 Q1007 NOSIG RMK A2975
TAF RJFF 141110Z 1412/1518 08007KT 9999 FEW035 
     BECMG 1414/1416 05006KT 
     BECMG 1418/1420 09012KT 
     TEMPO 1422/1503 14020G30KT 4000 SHRA BR 
     BECMG 1503/1506 16012KT
       
ROAH 141600Z 10006KT 060V140 9999 VCSH FEW010 28/25 Q0998 RMK 1CU010 A2949
TAF ROAH 141106Z 1412/1518 13014KT 9999 FEW015 BKN025 
     TEMPO 1415/1418 4000 SHRA FEW010 BKN015 FEW020CB 
     TEMPO 1418/1500 16022G34KT 2000 +TSRA FEW008 BKN010 SCT020CB 
     TEMPO 1503/1509 4000 SHRA FEW010 BKN015 FEW020CB
       
RJCC 141600Z VRB02KT 4000 -SHRA BR FEW002 BKN005 BKN007 20/19 Q1011 RMK 1ST002 5ST005 7ST007 A2986
TAF RJCC 141105Z 1412/1518 18005KT 9999 FEW005 BKN015 
     TEMPO 1412/1500 3000 -SHRA BR FEW002 BKN005 
     TEMPO 1500/1509 2000 SHRA BR FEW002 BKN004 
     TEMPO 1509/1518 3000 -SHRA BR FEW003 BKN006
       
RJEC 141100Z 32003KT 290V350 9999 -SHRA FEW010 SCT030 BKN045 20/19 Q1013
TAF AMD RJEC 141213Z 1412/1518 32004KT 9999 FEW003 BKN015 
     TEMPO 1412/1421 1500 -SHRA BR FEW001 BKN003 
     TEMPO 1421/1500 4000 BR FEW003 BKN006 
     TEMPO 1500/1509 3000 SHRA BR FEW003 BKN006 
     TEMPO 1509/1518 4000 -SHRA BR FEW005 BKN008
       
RJCK 141147Z VRB01KT 0900 R17/0700V1200D FG -SHRA BKN001 BKN002 18/18 Q1013 RMK 5ST001 7ST002 A2992
TAF RJCK 141112Z 1412/1518 01006KT 7000 FEW003 BKN015 
     TEMPO 1412/1500 0700 -SHRA FG VV001 
     TEMPO 1500/1506 4000 -SHRA BR FEW003 BKN006 
     TEMPO 1506/1518 2000 -SHRA BR FEW002 BKN005
       
RJSA 141200Z 20010KT 9999 FEW020 SCT150 BKN/// 24/21 Q1012
TAF RJSA 141106Z 1412/1518 21008KT 8000 -SHRA FEW010 SCT020 BKN030 
     TEMPO 1412/1421 3000 SHRA BR FEW005 BKN008 BKN015 
     TEMPO 1503/1509 2000 SHRA BR FEW005 BKN008 BKN015 
     TEMPO 1509/1518 4000 SHRA BR FEW005 BKN008 BKN015
       
RJSK 141200Z 15003KT 9999 FEW025 SCT120 BKN150 25/23 Q1012
TAF RJSK 141110Z 1412/1518 14004KT 8000 -SHRA FEW010 SCT020 BKN030 
     TEMPO 1415/1421 2000 -SHRA BR FEW002 BKN005 BKN010 
     BECMG 1422/1500 25005KT 
     TEMPO 1506/1512 3000 SHRA BR FEW005 BKN008 BKN015 
     TEMPO 1512/1518 1500 SHRA BR FEW002 BKN005 BKN010
       
RJSN 141200Z VRB02KT 9999 FEW030 SCT/// 28/26 Q1013
TAF RJSN 141106Z 1412/1518 18006KT 9999 FEW020 SCT080 
     BECMG 1503/1506 32006KT 
     BECMG 1509/1512 16004KT
       
RJSF 141100Z 14004KT CAVOK 26/24 Q1015
TAF RJSF 141105Z 1412/1518 15005KT 8000 FEW010 BKN020 
     TEMPO 1415/1421 4000 BR FEW005 BKN008 BKN015
       
RJSS 141200Z VRB01KT 8000 FEW007 SCT/// 27/25 Q1012
TAF RJSS 141105Z 1412/1518 12005KT 9999 FEW010 SCT040 
     TEMPO 1412/1415 4000 BR FEW003 BKN006 
     BECMG 1413/1415 24004KT 
     BECMG 1421/1423 13008KT 
     BECMG 1512/1515 26004KT
       
RJOK 141100Z 11006KT 9999 FEW030 SCT040 30/22 Q1011
TAF RJOK 141106Z 1412/1518 12014KT 9999 -SHRA FEW015 BKN030 
     TEMPO 1418/1421 4000 SHRA BR 
     TEMPO 1421/1503 2000 +SHRA BR FEW003 BKN008 BKN015 FEW020CB 
     TEMPO 1503/1512 3000 SHRA BR
       
RJOM 141200Z 31003KT 250V350 9999 FEW030 BKN/// 27/24 Q1009
TAF RJOM 141107Z 1412/1518 36004KT 9999 FEW020 SCT050 
     TEMPO 1512/1518 4000 SHRA BR
       
RJFO 141300Z 23003KT 170V250 9999 FEW035 SCT060 BKN/// 27/24 Q1009
TAF RJFO 141106Z 1412/1518 06011KT 9999 FEW025 BKN040 
     BECMG 1418/1420 12021KT 
     TEMPO 1500/1509 4000 SHRA BR FEW005 BKN008 BKN015 
     TEMPO 1509/1515 3000 SHRA BR FEW003 BKN005 BKN010
       
RJFU 141200Z 11013KT 9999 FEW040 BKN/// 32/22 Q1007
TAF RJFU 141109Z 1412/1518 09007KT 9000 -SHRA FEW008 BKN015 BKN025 
     BECMG 1413/1415 01015KT 
     TEMPO 1416/1421 36020G30KT 3000 SHRA BR 
     BECMG 1420/1422 19019KT 
     TEMPO 1421/1500 16030G50KT 1500 +SHRA BR
       
RJFT 141200Z 08005KT 040V120 9999 FEW040 BKN/// 29/21 Q1009
TAF RJFT 141107Z 1412/1518 05007KT 9999 -SHRA FEW020 BKN030 
     BECMG 1416/1418 06024G40KT 
     TEMPO 1419/1422 1500 +SHRA BR 
     BECMG 1420/1422 16010KT 
     TEMPO 1422/1503 3000 SHRA BR 
     BECMG 1500/1503 11010KT
       
RJFK 141200Z 08010KT 050V120 9999 FEW015 SCT025 BKN120 26/23 Q1009 RMK 1CU015 3CU025 5AC120 A2981
TAF RJFK 141108Z 1412/1518 31011KT 9000 -SHRA FEW010 SCT020 BKN030 
     TEMPO 1415/1417 31025G35KT 3000 SHRA BR 
     BECMG 1417/1419 20018KT 
     TEMPO 1417/1419 22020G30KT 3000 SHRA BR FEW003 BKN005 BKN010 
     BECMG 1419/1421 18008KT 
     TEMPO 1419/1503 3000 SHRA BR FEW003 BKN005 BKN010
       
RJFM 141200Z 03019KT 9000 FEW010 SCT020 BKN050 29/27 Q1008
TAF RJFM 141106Z 1412/1518 02022KT 6000 -SHRA FEW008 SCT010 BKN015 
     BECMG 1412/1414 03034KT 
     TEMPO 1412/1416 02040G55KT 1500 +SHRA BR FEW003 SCT005 BKN008 
     BECMG 1415/1417 15034KT 
     TEMPO 1416/1419 15040G55KT 1500 +SHRA BR FEW003 SCT005 BKN008 
     BECMG 1418/1420 15016KT